Time;durP1;ratioP1;P1;durP2;ratioP2;P2;SDS_P1;SDS_P2;PMS_P1;PMS_P2;Temp;Humidity;BMP_temperature;BMP_pressure;BME280_temperature;BME280_humidity;BME280_pressure;Samples;Min_cycle;Max_cycle;Signal;HPM_P1;HPM_P2
2020/12/06 00:01:58;;;;;;;4.82;1.92;;;13.00;96.70;;;;;;4987108;28;20048;-80
2020/12/06 00:04:30;;;;;;;3.45;1.45;;;13.00;96.70;;;;;;4978222;28;20038;-80
2020/12/06 00:07:04;;;;;;;5.10;1.48;;;13.00;96.70;;;;;;5001511;28;20057;-80
2020/12/06 00:09:35;;;;;;;5.07;1.45;;;13.00;96.70;;;;;;5002365;28;20050;-81
2020/12/06 00:12:02;;;;;;;4.43;1.17;;;13.00;96.70;;;;;;5001350;28;20034;-81
2020/12/06 00:14:30;;;;;;;4.55;1.80;;;13.00;96.70;;;;;;5004302;28;20050;-81
2020/12/06 00:16:58;;;;;;;4.55;1.40;;;13.00;96.70;;;;;;5002295;28;20439;-80
2020/12/06 00:19:25;;;;;;;4.72;1.35;;;13.00;96.70;;;;;;5002252;28;20049;-81
2020/12/06 00:21:53;;;;;;;7.20;1.45;;;13.00;96.70;;;;;;4998757;28;20042;-80
2020/12/06 00:24:21;;;;;;;12.57;8.98;;;13.00;96.70;;;;;;5003138;28;20038;-80
2020/12/06 00:26:49;;;;;;;8.50;3.40;;;13.00;96.70;;;;;;5002324;28;20038;-80
2020/12/06 00:29:16;;;;;;;6.10;2.10;;;13.00;96.70;;;;;;5004265;28;20407;-81
2020/12/06 00:31:47;;;;;;;5.30;1.50;;;13.00;96.70;;;;;;5016777;28;20073;-81
2020/12/06 00:34:14;;;;;;;3.88;1.40;;;13.00;96.70;;;;;;5001761;28;20324;-80
2020/12/06 00:36:42;;;;;;;3.88;1.02;;;13.00;96.70;;;;;;4999746;28;20254;-81
2020/12/06 00:39:09;;;;;;;3.97;1.20;;;13.00;96.70;;;;;;5016285;28;20054;-81
2020/12/06 00:41:36;;;;;;;2.97;1.25;;;13.00;96.70;;;;;;4983610;28;20045;-80
2020/12/06 00:44:04;;;;;;;3.72;0.95;;;13.00;96.70;;;;;;5003224;28;20042;-81
2020/12/06 00:46:33;;;;;;;3.50;0.88;;;13.00;96.70;;;;;;5000884;28;20050;-80
2020/12/06 00:49:01;;;;;;;4.30;0.75;;;13.00;96.70;;;;;;5004030;28;20165;-80
2020/12/06 00:51:28;;;;;;;3.58;0.70;;;13.00;96.70;;;;;;4998493;28;20042;-80
2020/12/06 00:53:56;;;;;;;2.40;0.52;;;12.90;96.70;;;;;;5001589;28;20066;-80
2020/12/06 00:56:24;;;;;;;4.63;0.82;;;12.90;96.70;;;;;;5000064;28;20071;-81
2020/12/06 00:58:51;;;;;;;3.15;0.85;;;12.90;96.70;;;;;;5002956;28;20588;-80
2020/12/06 01:01:19;;;;;;;4.05;0.60;;;12.80;96.70;;;;;;4985182;28;20053;-80
2020/12/06 01:03:47;;;;;;;5.15;0.82;;;12.80;96.70;;;;;;5002844;28;20052;-80
2020/12/06 01:06:16;;;;;;;2.15;0.65;;;12.70;96.70;;;;;;5001645;28;20029;-81
2020/12/06 01:08:44;;;;;;;2.00;0.38;;;12.60;96.70;;;;;;4987062;28;20128;-80
2020/12/06 01:11:12;;;;;;;1.90;0.43;;;12.60;96.70;;;;;;4998877;28;20045;-81
2020/12/06 01:13:39;;;;;;;2.28;0.28;;;12.50;96.70;;;;;;4999337;28;20066;-81
2020/12/06 01:16:07;;;;;;;1.83;0.77;;;12.50;96.70;;;;;;5005523;28;20060;-81
2020/12/06 01:18:35;;;;;;;4.55;0.65;;;12.50;96.70;;;;;;4997684;28;20053;-81
2020/12/06 01:21:03;;;;;;;2.35;0.30;;;12.60;96.70;;;;;;5007846;28;20037;-82
2020/12/06 01:23:30;;;;;;;1.45;0.22;;;12.50;96.70;;;;;;4999979;28;20129;-81
2020/12/06 01:25:57;;;;;;;3.60;0.40;;;12.50;96.70;;;;;;4998303;28;20038;-82
2020/12/06 01:28:24;;;;;;;4.63;0.60;;;12.50;96.70;;;;;;4982881;28;20130;-82
2020/12/06 01:30:52;;;;;;;2.80;0.30;;;12.50;96.70;;;;;;5003937;28;20045;-82
2020/12/06 01:33:19;;;;;;;4.35;0.28;;;12.50;96.70;;;;;;4998923;28;20108;-82
2020/12/06 01:35:47;;;;;;;1.67;0.40;;;12.50;96.70;;;;;;5001924;28;20518;-82
2020/12/06 01:38:14;;;;;;;4.68;0.40;;;12.50;96.70;;;;;;5004504;28;20073;-82
2020/12/06 01:40:42;;;;;;;0.88;0.20;;;12.50;96.70;;;;;;5003499;28;20045;-81
2020/12/06 01:43:09;;;;;;;2.85;0.40;;;12.50;96.70;;;;;;5010772;28;20097;-81
2020/12/06 01:45:37;;;;;;;2.53;0.32;;;12.50;96.70;;;;;;5001845;28;20503;-81
2020/12/06 01:48:09;;;;;;;2.35;0.30;;;12.50;96.70;;;;;;5003614;28;20065;-81
2020/12/06 01:50:38;;;;;;;4.95;0.63;;;12.50;96.70;;;;;;5018351;28;20518;-82
2020/12/06 01:53:07;;;;;;;4.32;0.30;;;12.50;96.70;;;;;;4983275;28;20038;-81
2020/12/06 01:55:34;;;;;;;2.85;0.32;;;12.60;96.70;;;;;;5002876;28;20500;-82
2020/12/06 01:58:04;;;;;;;1.80;0.55;;;12.60;96.70;;;;;;5000078;28;20125;-82
2020/12/06 02:00:31;;;;;;;3.72;0.50;;;12.60;96.70;;;;;;5001714;28;20045;-81
2020/12/06 02:02:59;;;;;;;34.88;22.42;;;12.50;96.70;;;;;;4987834;28;20100;-82
2020/12/06 02:05:26;;;;;;;38.28;22.98;;;12.40;96.70;;;;;;4982105;28;20092;-82
2020/12/06 02:07:57;;;;;;;30.08;16.50;;;12.20;96.70;;;;;;5000116;28;20484;-82
2020/12/06 02:10:26;;;;;;;42.88;28.55;;;12.10;96.70;;;;;;4984442;28;20053;-81
2020/12/06 02:12:54;;;;;;;96.55;58.25;;;12.00;96.70;;;;;;5000971;28;20052;-81
2020/12/06 02:15:21;;;;;;;15.98;11.00;;;12.00;96.70;;;;;;5001865;28;20131;-80
2020/12/06 02:17:49;;;;;;;33.47;21.42;;;11.90;96.70;;;;;;5001725;28;20342;-79
2020/12/06 02:20:18;;;;;;;11.48;6.65;;;11.90;96.70;;;;;;4984748;28;20046;-80
2020/12/06 02:22:45;;;;;;;6.57;3.15;;;11.90;96.70;;;;;;5001652;28;20044;-80
2020/12/06 02:25:13;;;;;;;11.27;6.55;;;12.00;96.70;;;;;;4996830;28;20041;-80
2020/12/06 02:27:40;;;;;;;6.70;3.60;;;11.90;96.70;;;;;;4996925;28;20931;-79
2020/12/06 02:30:07;;;;;;;2.38;1.38;;;11.90;96.70;;;;;;5002521;28;20049;-79
2020/12/06 02:32:34;;;;;;;21.33;14.70;;;11.90;96.70;;;;;;4996506;28;20080;-80
2020/12/06 02:35:03;;;;;;;6.03;3.28;;;11.90;96.70;;;;;;4999889;28;20038;-80
2020/12/06 02:37:32;;;;;;;46.05;27.40;;;11.80;96.70;;;;;;4998863;28;20450;-81
2020/12/06 02:40:00;;;;;;;58.83;35.78;;;11.80;96.70;;;;;;5001128;28;20061;-80
2020/12/06 02:42:27;;;;;;;24.88;12.25;;;11.80;96.70;;;;;;4997714;28;20144;-80
2020/12/06 02:44:54;;;;;;;17.23;8.25;;;11.80;96.70;;;;;;4998765;28;20045;-80
2020/12/06 02:47:21;;;;;;;14.68;8.13;;;11.90;96.70;;;;;;5002266;28;20049;-80
2020/12/06 02:49:49;;;;;;;64.85;35.28;;;11.80;96.70;;;;;;4982424;28;20389;-80
2020/12/06 02:52:16;;;;;;;22.17;12.38;;;11.70;96.70;;;;;;4988176;28;20129;-81
2020/12/06 02:54:44;;;;;;;9.15;4.32;;;11.70;96.70;;;;;;4998724;28;20680;-81
2020/12/06 02:57:11;;;;;;;14.27;8.40;;;11.80;96.70;;;;;;4999482;28;20096;-81
2020/12/06 02:59:39;;;;;;;7.68;2.88;;;11.80;96.70;;;;;;4985961;28;20034;-81
2020/12/06 03:02:06;;;;;;;24.10;15.02;;;11.70;96.70;;;;;;4998666;28;20034;-81
2020/12/06 03:04:33;;;;;;;52.75;27.10;;;11.60;96.70;;;;;;5002974;28;20073;-81
2020/12/06 03:07:00;;;;;;;16.45;8.40;;;11.60;96.70;;;;;;5000413;28;20052;-81
2020/12/06 03:09:27;;;;;;;10.38;4.88;;;11.60;96.70;;;;;;5002377;28;20137;-82
2020/12/06 03:11:56;;;;;;;16.35;9.00;;;11.50;96.70;;;;;;4999808;28;20154;-82
2020/12/06 03:14:23;;;;;;;7.43;3.55;;;11.50;96.70;;;;;;5000758;28;20069;-82
2020/12/06 03:16:50;;;;;;;5.05;1.90;;;11.60;96.70;;;;;;4997773;28;20160;-82
2020/12/06 03:19:17;;;;;;;8.60;5.20;;;11.60;96.70;;;;;;5002530;28;20046;-82
2020/12/06 03:21:45;;;;;;;11.13;7.53;;;11.60;96.70;;;;;;4996740;28;20113;-82
2020/12/06 03:24:12;;;;;;;5.68;4.10;;;11.60;96.70;;;;;;4983109;28;20041;-82
2020/12/06 03:26:39;;;;;;;8.82;4.30;;;11.50;96.70;;;;;;4999637;28;20046;-81
2020/12/06 03:29:08;;;;;;;6.53;2.47;;;11.60;96.70;;;;;;4998271;28;20038;-82
2020/12/06 03:31:35;;;;;;;3.72;1.70;;;11.70;96.70;;;;;;4979092;28;20069;-82
2020/12/06 03:34:02;;;;;;;4.15;1.23;;;11.70;96.70;;;;;;5000629;28;20045;-82
2020/12/06 03:36:30;;;;;;;3.38;1.55;;;11.80;96.70;;;;;;4984789;28;20056;-82
2020/12/06 03:38:57;;;;;;;2.70;0.55;;;11.80;96.70;;;;;;4982238;28;20416;-82
2020/12/06 03:41:24;;;;;;;1.08;0.80;;;11.80;96.70;;;;;;5000373;28;20045;-80
2020/12/06 03:43:51;;;;;;;2.70;0.85;;;11.80;96.70;;;;;;4983483;28;20532;-81
2020/12/06 03:46:19;;;;;;;2.58;1.10;;;11.80;96.70;;;;;;4980256;28;20053;-81
2020/12/06 03:48:46;;;;;;;27.65;16.45;;;11.90;96.70;;;;;;5000725;28;20088;-81
2020/12/06 03:51:13;;;;;;;7.85;3.05;;;11.80;96.70;;;;;;4997999;28;20060;-81
2020/12/06 03:53:40;;;;;;;2.88;1.58;;;11.70;96.70;;;;;;5001379;28;20038;-81
2020/12/06 03:56:09;;;;;;;4.60;1.38;;;11.80;96.70;;;;;;5000319;28;20061;-81
2020/12/06 03:58:38;;;;;;;3.85;1.65;;;11.80;96.70;;;;;;5008665;28;20157;-81
2020/12/06 04:01:06;;;;;;;2.28;0.70;;;11.80;96.70;;;;;;5002319;28;21505;-82
2020/12/06 04:03:34;;;;;;;3.50;0.63;;;11.90;96.70;;;;;;5000240;28;20042;-82
2020/12/06 04:06:01;;;;;;;3.40;0.82;;;11.90;96.70;;;;;;4998867;28;20046;-81
2020/12/06 04:08:29;;;;;;;2.17;0.40;;;11.80;96.70;;;;;;4978689;28;20037;-82
2020/12/06 04:10:56;;;;;;;2.20;0.35;;;11.70;96.70;;;;;;4994420;28;20508;-82
2020/12/06 04:13:23;;;;;;;2.00;0.93;;;11.70;96.70;;;;;;4984308;28;20065;-83
2020/12/06 04:15:51;;;;;;;1.00;0.40;;;11.60;96.70;;;;;;4984402;28;20100;-82
2020/12/06 04:18:18;;;;;;;1.90;0.52;;;11.60;96.70;;;;;;4987844;28;20053;-82
2020/12/06 04:20:46;;;;;;;2.83;0.50;;;11.70;96.70;;;;;;5004746;28;20046;-81
2020/12/06 04:23:13;;;;;;;2.22;0.20;;;11.60;96.70;;;;;;4984837;28;20049;-82
2020/12/06 04:25:40;;;;;;;1.05;0.20;;;11.60;96.70;;;;;;5004245;28;20037;-82
2020/12/06 04:28:10;;;;;;;1.52;0.30;;;11.60;96.70;;;;;;4998782;28;20038;-82
2020/12/06 04:30:37;;;;;;;1.83;0.40;;;11.60;96.70;;;;;;4986982;28;20096;-81
2020/12/06 04:33:05;;;;;;;2.67;0.22;;;11.50;96.70;;;;;;4987887;28;20061;-82
2020/12/06 04:35:32;;;;;;;0.63;0.13;;;11.50;96.70;;;;;;5002681;28;20041;-80
2020/12/06 04:38:00;;;;;;;1.65;0.30;;;11.40;96.70;;;;;;5003410;28;20049;-81
2020/12/06 04:40:29;;;;;;;0.60;0.10;;;11.40;96.70;;;;;;5000303;28;20038;-81
2020/12/06 04:42:58;;;;;;;0.60;0.17;;;11.40;96.70;;;;;;5001182;28;21026;-79
2020/12/06 04:45:25;;;;;;;1.70;0.20;;;11.40;96.70;;;;;;4998732;28;20064;-80
2020/12/06 04:47:59;;;;;;;0.32;0.10;;;11.30;96.70;;;;;;5002686;28;20511;-80
2020/12/06 04:50:31;;;;;;;0.80;0.10;;;11.30;96.70;;;;;;5000190;28;20125;-80
2020/12/06 04:53:01;;;;;;;0.30;0.10;;;11.30;96.70;;;;;;4986128;28;20432;-80
2020/12/06 04:55:30;;;;;;;1.35;0.20;;;11.20;96.70;;;;;;5002104;28;20034;-80
2020/12/06 04:58:00;;;;;;;0.35;0.10;;;11.20;96.70;;;;;;4999845;28;20061;-81
2020/12/06 05:00:31;;;;;;;0.75;0.20;;;11.20;96.70;;;;;;5034054;28;20233;-81
2020/12/06 05:03:00;;;;;;;1.95;0.20;;;11.20;96.70;;;;;;5001761;28;20050;-80
2020/12/06 05:05:34;;;;;;;0.68;0.17;;;11.30;96.70;;;;;;4989391;28;20145;-80
2020/12/06 05:08:05;;;;;;;1.27;0.40;;;11.20;96.70;;;;;;5003210;28;20464;-79
2020/12/06 05:10:37;;;;;;;1.50;0.60;;;11.20;96.70;;;;;;4999197;28;20049;-80
2020/12/06 05:13:05;;;;;;;0.60;0.57;;;11.30;96.70;;;;;;4998608;28;20050;-80
2020/12/06 05:15:33;;;;;;;1.35;0.40;;;11.20;96.70;;;;;;5001227;28;20503;-80
2020/12/06 05:18:02;;;;;;;0.52;0.20;;;11.20;96.70;;;;;;5001240;28;20082;-80
2020/12/06 05:20:29;;;;;;;1.20;0.25;;;11.20;96.70;;;;;;5000214;28;20568;-80
2020/12/06 05:22:57;;;;;;;1.52;0.65;;;11.20;96.70;;;;;;4998623;28;20042;-80
2020/12/06 05:25:25;;;;;;;0.75;0.35;;;11.10;96.70;;;;;;4998918;28;20515;-80
2020/12/06 05:27:52;;;;;;;0.82;0.32;;;11.10;96.70;;;;;;5000833;28;20042;-80
2020/12/06 05:30:20;;;;;;;1.05;0.50;;;11.10;96.70;;;;;;5002511;28;20304;-81
2020/12/06 05:32:47;;;;;;;0.45;0.30;;;11.10;96.70;;;;;;5001989;28;20080;-81
2020/12/06 05:35:14;;;;;;;1.60;1.27;;;11.20;96.70;;;;;;5000932;28;20507;-81
2020/12/06 05:37:42;;;;;;;1.95;1.55;;;11.20;96.70;;;;;;5005090;28;20037;-81
2020/12/06 05:40:17;;;;;;;3.38;0.45;;;11.20;96.70;;;;;;4995217;28;20046;-81
2020/12/06 05:42:46;;;;;;;0.55;0.35;;;11.30;96.70;;;;;;5000728;28;20045;-81
2020/12/06 05:45:17;;;;;;;1.58;0.60;;;11.30;96.70;;;;;;5003381;28;20500;-82
2020/12/06 05:47:45;;;;;;;2.35;1.10;;;11.30;96.70;;;;;;5004965;28;20123;-81
2020/12/06 05:50:12;;;;;;;1.65;0.30;;;11.30;96.70;;;;;;5002338;28;20053;-81
2020/12/06 05:52:39;;;;;;;1.55;0.30;;;11.30;96.70;;;;;;4984241;28;20152;-81
2020/12/06 05:55:07;;;;;;;1.17;0.20;;;11.40;96.70;;;;;;5000225;28;20072;-82
2020/12/06 05:57:45;;;;;;;0.28;0.20;;;11.40;96.70;;;;;;4987916;28;20069;-81
2020/12/06 06:00:14;;;;;;;1.30;0.45;;;11.30;96.70;;;;;;4987182;28;20135;-81
2020/12/06 06:02:44;;;;;;;4.05;1.30;;;11.40;96.70;;;;;;5001314;28;20034;-82
2020/12/06 06:05:17;;;;;;;9.63;3.95;;;11.20;96.70;;;;;;4999790;28;20121;-81
2020/12/06 06:07:48;;;;;;;10.07;5.43;;;11.10;96.70;;;;;;4995131;28;20049;-81
2020/12/06 06:10:18;;;;;;;5.28;1.30;;;11.00;96.70;;;;;;5000990;28;20279;-82
2020/12/06 06:12:52;;;;;;;2.63;0.90;;;11.00;96.70;;;;;;4999998;28;20052;-81
2020/12/06 06:15:20;;;;;;;1.77;0.50;;;10.90;96.70;;;;;;5004390;28;20301;-81
2020/12/06 06:17:49;;;;;;;2.28;0.40;;;10.90;96.70;;;;;;5001105;28;20038;-82
2020/12/06 06:20:17;;;;;;;2.60;0.60;;;10.90;96.70;;;;;;5004757;28;20057;-81
2020/12/06 06:22:47;;;;;;;0.22;0.20;;;10.90;96.70;;;;;;5000376;28;20192;-81
2020/12/06 06:25:15;;;;;;;1.27;0.50;;;10.90;96.70;;;;;;5005638;28;20037;-82
2020/12/06 06:27:42;;;;;;;1.65;0.30;;;10.90;96.70;;;;;;4998018;28;20103;-81
2020/12/06 06:30:11;;;;;;;0.55;0.22;;;10.80;96.70;;;;;;4999697;28;20136;-81
2020/12/06 06:32:40;;;;;;;0.95;0.20;;;10.90;96.70;;;;;;5000912;28;20136;-81
2020/12/06 06:35:09;;;;;;;0.82;0.20;;;10.90;96.70;;;;;;4998642;28;20056;-82
2020/12/06 06:37:37;;;;;;;0.52;0.20;;;11.00;96.70;;;;;;4987878;28;20152;-81
2020/12/06 06:40:06;;;;;;;1.63;0.20;;;11.00;96.70;;;;;;4999045;28;20092;-82
2020/12/06 06:42:35;;;;;;;0.20;0.10;;;11.00;96.70;;;;;;4998260;28;20038;-80
2020/12/06 06:45:05;;;;;;;1.60;0.30;;;11.00;96.70;;;;;;5001974;28;20049;-80
2020/12/06 06:47:36;;;;;;;0.82;0.20;;;11.00;96.70;;;;;;4999356;28;20037;-80
2020/12/06 06:50:05;;;;;;;1.70;0.30;;;11.10;96.70;;;;;;4998812;28;22554;-80
2020/12/06 06:52:33;;;;;;;0.63;0.20;;;11.10;96.70;;;;;;4996705;28;20534;-81
2020/12/06 06:55:00;;;;;;;0.55;0.15;;;11.10;96.70;;;;;;5001362;28;20463;-80
2020/12/06 06:57:30;;;;;;;0.20;0.10;;;11.20;96.70;;;;;;5001331;28;20038;-80
2020/12/06 06:59:59;;;;;;;0.57;0.13;;;11.20;96.70;;;;;;5000984;28;20052;-80
2020/12/06 07:02:32;;;;;;;0.22;0.15;;;11.10;96.70;;;;;;4998060;28;20046;-80
2020/12/06 07:05:01;;;;;;;0.73;0.30;;;11.10;96.70;;;;;;4987155;28;20597;-80
2020/12/06 07:07:44;;;;;;;1.70;0.90;;;11.00;96.70;;;;;;5004721;28;20038;-81
2020/12/06 07:10:14;;;;;;;1.05;0.40;;;10.90;96.70;;;;;;5001190;28;20085;-80
2020/12/06 07:12:47;;;;;;;1.73;0.93;;;10.80;96.70;;;;;;4982348;28;20070;-81
2020/12/06 07:15:15;;;;;;;1.58;0.77;;;10.70;96.70;;;;;;4978746;28;20136;-80
2020/12/06 07:17:43;;;;;;;1.63;0.22;;;10.80;96.70;;;;;;4982679;28;20585;-80
2020/12/06 07:20:13;;;;;;;2.78;1.25;;;10.90;96.70;;;;;;4998399;28;20117;-80
2020/12/06 07:22:41;;;;;;;1.90;0.55;;;11.00;96.70;;;;;;4997121;28;20715;-80
2020/12/06 07:25:10;;;;;;;3.70;0.90;;;11.00;96.70;;;;;;4999237;28;20033;-80
2020/12/06 07:27:37;;;;;;;2.53;0.73;;;11.00;96.70;;;;;;4995734;28;20088;-80
2020/12/06 07:30:06;;;;;;;1.35;0.73;;;11.10;96.70;;;;;;4997797;28;20077;-80
2020/12/06 07:32:34;;;;;;;1.42;0.93;;;11.10;96.70;;;;;;4981188;28;20046;-80
2020/12/06 07:35:02;;;;;;;12.18;7.65;;;11.10;96.70;;;;;;4979946;28;20603;-81
2020/12/06 07:37:30;;;;;;;1.55;0.95;;;11.10;96.70;;;;;;4998220;28;20066;-80
2020/12/06 07:39:57;;;;;;;1.20;0.50;;;11.00;96.70;;;;;;4997788;28;20444;-80
2020/12/06 07:42:26;;;;;;;0.60;0.40;;;11.00;96.70;;;;;;5002533;28;20141;-80
2020/12/06 07:44:56;;;;;;;1.88;0.60;;;10.90;96.70;;;;;;4998550;28;20042;-80
2020/12/06 07:47:24;;;;;;;0.90;0.50;;;10.90;96.70;;;;;;5000139;28;20068;-81
2020/12/06 07:49:54;;;;;;;1.33;0.60;;;10.90;96.70;;;;;;5000400;28;20041;-82
2020/12/06 07:52:23;;;;;;;1.35;0.50;;;10.90;96.70;;;;;;5018872;28;20129;-82
2020/12/06 07:54:53;;;;;;;1.88;0.82;;;10.80;96.70;;;;;;5002315;28;20046;-81
2020/12/06 07:57:27;;;;;;;0.93;0.50;;;10.70;96.70;;;;;;5001408;28;20041;-81
2020/12/06 07:59:55;;;;;;;1.17;0.60;;;10.70;96.70;;;;;;5001533;28;20411;-82
2020/12/06 08:02:24;;;;;;;1.38;0.85;;;10.70;96.70;;;;;;5002196;28;20050;-80
2020/12/06 08:04:53;;;;;;;3.58;1.00;;;10.80;96.70;;;;;;5000233;28;20050;-81
2020/12/06 08:07:24;;;;;;;2.97;1.70;;;10.80;96.70;;;;;;5004625;28;20399;-82
2020/12/06 08:09:55;;;;;;;1.80;1.25;;;10.80;96.70;;;;;;4985891;28;20566;-82
2020/12/06 08:12:24;;;;;;;2.08;1.00;;;10.80;96.70;;;;;;5007265;28;20406;-81
2020/12/06 08:15:00;;;;;;;3.97;0.88;;;10.80;96.70;;;;;;5000207;28;20096;-82
2020/12/06 08:17:43;;;;;;;2.03;1.10;;;10.70;96.70;;;;;;4997447;28;20150;-81
2020/12/06 08:20:11;;;;;;;1.90;0.60;;;10.70;96.70;;;;;;4999163;28;20054;-81
2020/12/06 08:22:49;;;;;;;0.90;0.73;;;10.80;96.70;;;;;;5009020;28;20038;-81
2020/12/06 08:25:19;;;;;;;2.45;0.52;;;10.80;96.70;;;;;;5000675;28;20044;-82
2020/12/06 08:27:48;;;;;;;2.33;0.93;;;10.70;96.70;;;;;;5000587;28;20069;-81
2020/12/06 08:30:17;;;;;;;4.72;2.50;;;10.70;96.70;;;;;;4984298;28;20161;-82
2020/12/06 08:32:52;;;;;;;2.13;1.20;;;10.60;96.70;;;;;;5003443;28;20184;-82
2020/12/06 08:35:20;;;;;;;2.93;2.07;;;10.60;96.70;;;;;;5002131;28;20350;-81
2020/12/06 08:37:51;;;;;;;6.75;5.95;;;10.60;96.70;;;;;;5003726;28;20407;-81
2020/12/06 08:40:20;;;;;;;7.20;5.13;;;10.50;96.70;;;;;;5005938;28;20044;-81
2020/12/06 08:42:57;;;;;;;3.88;2.50;;;10.50;96.70;;;;;;4999175;28;20133;-82
2020/12/06 08:45:25;;;;;;;3.00;2.30;;;10.50;96.70;;;;;;4987890;28;20103;-86
2020/12/06 08:47:52;;;;;;;4.32;3.20;;;10.50;96.70;;;;;;5001079;28;20544;-82
2020/12/06 08:50:19;;;;;;;4.45;2.78;;;10.50;96.70;;;;;;5001859;28;20551;-82
2020/12/06 08:52:56;;;;;;;3.20;1.90;;;10.50;96.70;;;;;;5014744;28;20042;-82
2020/12/06 08:55:28;;;;;;;3.53;2.25;;;10.50;96.70;;;;;;4998329;28;20065;-82
2020/12/06 08:57:58;;;;;;;2.58;1.52;;;10.50;96.70;;;;;;4985551;28;20050;-81
2020/12/06 09:00:29;;;;;;;3.33;2.60;;;10.60;96.70;;;;;;5002161;28;21173;-85
2020/12/06 09:02:59;;;;;;;2.85;1.50;;;10.50;96.70;;;;;;5000708;28;20522;-83
2020/12/06 09:05:27;;;;;;;4.82;4.05;;;10.60;96.70;;;;;;5000883;28;20042;-83
2020/12/06 09:07:54;;;;;;;3.40;2.10;;;10.80;96.70;;;;;;4986425;28;20119;-85
2020/12/06 09:10:22;;;;;;;2.20;1.42;;;10.70;96.70;;;;;;5000144;28;20034;-85
2020/12/06 09:12:50;;;;;;;2.75;2.05;;;10.60;96.70;;;;;;4995538;28;20125;-83
2020/12/06 09:15:17;;;;;;;4.93;2.45;;;10.60;96.70;;;;;;5002231;28;20048;-87
2020/12/06 09:17:45;;;;;;;5.05;3.30;;;10.50;96.70;;;;;;5001618;28;20048;-86
2020/12/06 09:20:15;;;;;;;3.60;2.65;;;10.50;96.70;;;;;;5002485;28;20100;-85
2020/12/06 09:22:43;;;;;;;9.52;5.85;;;10.50;96.70;;;;;;5000376;28;20041;-86
2020/12/06 09:25:10;;;;;;;7.78;6.03;;;10.50;96.70;;;;;;5000968;28;20050;-86
2020/12/06 09:27:38;;;;;;;6.45;5.30;;;10.60;96.70;;;;;;5002382;28;20064;-87
2020/12/06 09:30:07;;;;;;;3.78;3.00;;;10.60;96.70;;;;;;5002376;28;20046;-85
2020/12/06 09:32:37;;;;;;;6.15;4.68;;;10.60;96.70;;;;;;5001024;28;20073;-86
2020/12/06 09:35:05;;;;;;;3.83;2.80;;;10.70;96.70;;;;;;5017865;28;20038;-86
2020/12/06 09:37:33;;;;;;;5.18;3.80;;;10.70;96.70;;;;;;5001651;28;20034;-83
2020/12/06 09:40:00;;;;;;;4.13;2.78;;;10.70;96.70;;;;;;5000630;28;20073;-85
2020/12/06 09:42:27;;;;;;;3.47;1.70;;;10.70;96.70;;;;;;5001454;28;20076;-84
2020/12/06 09:44:54;;;;;;;2.80;2.40;;;10.70;96.70;;;;;;4984891;28;20543;-85
2020/12/06 09:47:23;;;;;;;2.55;1.80;;;10.80;96.70;;;;;;4985609;28;20045;-85
2020/12/06 09:49:51;;;;;;;3.83;2.80;;;10.70;96.70;;;;;;4996381;28;20053;-83
2020/12/06 09:52:18;;;;;;;4.72;3.75;;;10.80;96.70;;;;;;5008281;28;20052;-83
2020/12/06 09:54:45;;;;;;;3.17;2.22;;;10.80;96.70;;;;;;5016426;28;20061;-82
2020/12/06 09:57:13;;;;;;;2.80;1.60;;;10.80;96.70;;;;;;5005368;28;20049;-85
2020/12/06 09:59:40;;;;;;;17.27;10.15;;;10.80;96.70;;;;;;4983393;28;20538;-83
2020/12/06 10:02:07;;;;;;;7.85;5.15;;;10.80;96.70;;;;;;4999027;28;20041;-86
2020/12/06 10:04:38;;;;;;;2.65;1.73;;;10.80;96.70;;;;;;4984783;28;20038;-84
2020/12/06 10:07:06;;;;;;;2.50;1.10;;;10.80;96.70;;;;;;4999799;28;20057;-86
2020/12/06 10:09:33;;;;;;;4.60;2.60;;;10.70;96.70;;;;;;4999347;28;20042;-85
2020/12/06 10:12:02;;;;;;;3.30;2.10;;;10.70;96.70;;;;;;5001780;28;20046;-81
2020/12/06 10:14:29;;;;;;;1.75;1.52;;;10.70;96.70;;;;;;4982263;28;20052;-83
2020/12/06 10:16:56;;;;;;;5.00;3.03;;;10.70;96.70;;;;;;4999877;28;20042;-86
2020/12/06 10:19:24;;;;;;;3.47;2.72;;;10.70;96.70;;;;;;4983441;28;20041;-85
2020/12/06 10:21:52;;;;;;;2.08;1.38;;;10.70;96.70;;;;;;4985893;28;20156;-81
2020/12/06 10:24:20;;;;;;;2.60;1.73;;;10.70;96.70;;;;;;4998641;28;20080;-85
2020/12/06 10:26:51;;;;;;;3.10;1.40;;;10.70;96.70;;;;;;4981167;28;20046;-82
2020/12/06 10:29:18;;;;;;;3.65;2.25;;;10.70;96.70;;;;;;4994819;28;20125;-78
2020/12/06 10:31:48;;;;;;;8.73;5.47;;;10.70;96.70;;;;;;4995989;28;20116;-86
2020/12/06 10:34:16;;;;;;;14.82;11.80;;;10.70;96.70;;;;;;4999383;28;20046;-84
2020/12/06 10:36:47;;;;;;;10.40;8.80;;;10.70;96.70;;;;;;4986759;28;20493;-86
2020/12/06 10:39:16;;;;;;;8.15;5.82;;;10.70;96.70;;;;;;4995777;28;20045;-86
2020/12/06 10:41:46;;;;;;;44.75;30.02;;;10.70;96.70;;;;;;4999558;28;20042;-84
2020/12/06 10:44:13;;;;;;;12.20;8.98;;;10.70;96.70;;;;;;5000170;28;20321;-85
2020/12/06 10:46:41;;;;;;;6.72;4.65;;;10.70;96.70;;;;;;5001124;28;20038;-83
2020/12/06 10:49:09;;;;;;;18.55;13.45;;;10.70;96.70;;;;;;5001443;28;20053;-86
2020/12/06 10:51:38;;;;;;;5.85;3.95;;;10.80;96.70;;;;;;4981668;28;20129;-85
2020/12/06 10:54:06;;;;;;;8.18;6.07;;;10.90;96.70;;;;;;4999037;28;20117;-86
2020/12/06 10:56:35;;;;;;;5.47;4.30;;;10.90;96.70;;;;;;4995603;28;20030;-82
2020/12/06 10:59:03;;;;;;;4.43;3.55;;;11.00;96.70;;;;;;5003791;28;20057;-81
2020/12/06 11:01:31;;;;;;;4.47;3.08;;;10.90;96.70;;;;;;4997136;28;20041;-86
2020/12/06 11:03:59;;;;;;;2.35;1.80;;;10.90;96.70;;;;;;4998090;28;20050;-82
2020/12/06 11:06:27;;;;;;;12.25;10.30;;;10.80;96.70;;;;;;4994168;28;20049;-83
2020/12/06 11:08:54;;;;;;;8.65;6.88;;;10.80;96.70;;;;;;5002796;28;20065;-85
2020/12/06 11:11:23;;;;;;;4.70;3.55;;;10.70;96.70;;;;;;4994145;28;20189;-86
2020/12/06 11:13:53;;;;;;;3.75;2.85;;;10.70;96.70;;;;;;4983558;28;20065;-82
2020/12/06 11:16:22;;;;;;;4.38;2.75;;;10.80;96.70;;;;;;4992251;28;20053;-80
2020/12/06 11:18:50;;;;;;;2.22;1.67;;;10.80;96.70;;;;;;5002128;28;20050;-80
2020/12/06 11:21:19;;;;;;;11.45;9.25;;;10.80;96.70;;;;;;4999581;28;20512;-82
2020/12/06 11:23:48;;;;;;;3.10;2.30;;;10.70;96.70;;;;;;5005490;28;20093;-84
2020/12/06 11:26:17;;;;;;;2.63;1.80;;;10.70;96.70;;;;;;5001097;28;20044;-82
2020/12/06 11:28:45;;;;;;;2.25;1.60;;;10.70;96.70;;;;;;5002585;28;20037;-82
2020/12/06 11:31:14;;;;;;;3.22;1.95;;;10.70;96.70;;;;;;5000902;28;20050;-82
2020/12/06 11:33:42;;;;;;;3.40;1.63;;;10.70;96.70;;;;;;5002345;28;20044;-82
2020/12/06 11:36:11;;;;;;;2.33;2.00;;;10.60;96.70;;;;;;4987424;28;20513;-82
2020/12/06 11:38:38;;;;;;;2.28;1.80;;;10.60;96.70;;;;;;4986367;28;20540;-83
2020/12/06 11:41:06;;;;;;;5.43;3.80;;;10.60;96.70;;;;;;5002846;28;20046;-83
2020/12/06 11:43:33;;;;;;;4.15;2.65;;;10.60;96.70;;;;;;5003027;28;20052;-82
2020/12/06 11:46:01;;;;;;;3.60;1.80;;;10.60;96.70;;;;;;5001256;28;20049;-82
2020/12/06 11:48:29;;;;;;;1.48;1.30;;;10.60;96.70;;;;;;5004220;28;20484;-82
2020/12/06 11:50:57;;;;;;;3.47;1.50;;;10.50;96.70;;;;;;4990471;28;20128;-82
2020/12/06 11:53:24;;;;;;;3.30;1.23;;;10.50;96.70;;;;;;5002683;28;20045;-83
2020/12/06 11:55:52;;;;;;;2.78;1.50;;;10.50;96.70;;;;;;4989101;28;20534;-81
2020/12/06 11:58:19;;;;;;;2.97;1.20;;;10.50;96.70;;;;;;5004889;28;20125;-82
2020/12/06 12:00:47;;;;;;;4.85;3.28;;;10.40;96.70;;;;;;5002607;28;20148;-82
2020/12/06 12:03:14;;;;;;;4.32;2.45;;;10.40;96.70;;;;;;4988189;28;20104;-82
2020/12/06 12:05:42;;;;;;;5.72;3.42;;;10.30;96.70;;;;;;5003548;28;20042;-82
2020/12/06 12:08:10;;;;;;;5.28;2.72;;;10.30;96.70;;;;;;5018317;28;20069;-82
2020/12/06 12:10:38;;;;;;;4.80;2.55;;;10.30;96.70;;;;;;4987511;28;20042;-82
2020/12/06 12:13:05;;;;;;;5.32;3.05;;;10.30;96.70;;;;;;5005222;28;20044;-82
2020/12/06 12:15:33;;;;;;;3.28;2.03;;;10.30;96.70;;;;;;4988237;28;20041;-82
2020/12/06 12:18:02;;;;;;;2.22;1.63;;;10.30;96.70;;;;;;4985498;28;20120;-82
2020/12/06 12:20:29;;;;;;;4.05;2.47;;;10.30;96.70;;;;;;5002715;28;20514;-82
2020/12/06 12:22:58;;;;;;;3.28;1.60;;;10.30;96.70;;;;;;5003743;28;20052;-82
2020/12/06 12:25:25;;;;;;;2.38;1.45;;;10.30;96.70;;;;;;5007822;28;20046;-84
2020/12/06 12:27:52;;;;;;;1.90;1.23;;;10.30;96.70;;;;;;5001864;28;20092;-82
2020/12/06 12:30:20;;;;;;;2.20;1.60;;;10.30;96.70;;;;;;5005109;28;20038;-82
2020/12/06 12:32:47;;;;;;;3.85;1.83;;;10.30;96.70;;;;;;5001496;28;20081;-82
2020/12/06 12:35:14;;;;;;;4.10;2.85;;;10.30;96.70;;;;;;4988861;28;20500;-82
2020/12/06 12:37:42;;;;;;;6.78;5.20;;;10.30;96.70;;;;;;4982698;28;20053;-82
2020/12/06 12:40:11;;;;;;;3.17;1.83;;;10.40;96.70;;;;;;5001317;28;20042;-82
2020/12/06 12:42:38;;;;;;;4.22;2.40;;;10.40;96.70;;;;;;5014868;28;20038;-82
2020/12/06 12:45:06;;;;;;;3.58;2.08;;;10.40;96.70;;;;;;5018865;28;20046;-82
2020/12/06 12:47:34;;;;;;;5.82;4.00;;;10.40;96.70;;;;;;5000470;28;20978;-82
2020/12/06 12:50:02;;;;;;;4.97;2.97;;;10.50;96.70;;;;;;4990166;28;20065;-82
2020/12/06 12:52:30;;;;;;;4.43;2.20;;;10.40;96.70;;;;;;5001728;28;20129;-81